sensor_id;sensor_type;location;lat;lon;timestamp;pressure;altitude;pressure_sealevel;temperature;humidity
58662;BME280;44432;49.786;22.760;2023-07-09T00:00:15;99671.40;;;15.39;73.01
58662;BME280;44432;49.786;22.760;2023-07-09T00:03:07;99670.34;;;15.32;73.16
58662;BME280;44432;49.786;22.760;2023-07-09T00:05:39;99669.69;;;15.29;73.48
58662;BME280;44432;49.786;22.760;2023-07-09T00:08:24;99666.70;;;15.26;73.51
58662;BME280;44432;49.786;22.760;2023-07-09T00:10:57;99667.12;;;15.23;73.58
58662;BME280;44432;49.786;22.760;2023-07-09T00:13:28;99667.02;;;15.22;73.78
58662;BME280;44432;49.786;22.760;2023-07-09T00:16:01;99665.77;;;15.21;73.70
58662;BME280;44432;49.786;22.760;2023-07-09T00:18:32;99670.79;;;15.18;73.81
58662;BME280;44432;49.786;22.760;2023-07-09T00:21:04;99671.57;;;15.13;73.84
58662;BME280;44432;49.786;22.760;2023-07-09T00:23:35;99677.02;;;15.10;73.99
58662;BME280;44432;49.786;22.760;2023-07-09T00:26:10;99674.97;;;15.06;74.02
58662;BME280;44432;49.786;22.760;2023-07-09T00:28:43;99675.04;;;15.01;74.17
58662;BME280;44432;49.786;22.760;2023-07-09T00:31:15;99670.90;;;14.97;74.26
58662;BME280;44432;49.786;22.760;2023-07-09T00:33:46;99672.29;;;14.95;74.49
58662;BME280;44432;49.786;22.760;2023-07-09T00:36:19;99669.12;;;14.94;74.58
58662;BME280;44432;49.786;22.760;2023-07-09T00:38:51;99669.28;;;14.92;74.66
58662;BME280;44432;49.786;22.760;2023-07-09T00:41:22;99672.11;;;14.89;74.67
58662;BME280;44432;49.786;22.760;2023-07-09T00:43:53;99670.52;;;14.88;74.73
58662;BME280;44432;49.786;22.760;2023-07-09T00:49:32;99671.08;;;14.80;74.92
58662;BME280;44432;49.786;22.760;2023-07-09T00:52:03;99670.02;;;14.75;74.98
58662;BME280;44432;49.786;22.760;2023-07-09T00:54:37;99673.40;;;14.70;75.21
58662;BME280;44432;49.786;22.760;2023-07-09T00:57:13;99674.38;;;14.68;75.32
58662;BME280;44432;49.786;22.760;2023-07-09T00:59:50;99671.69;;;14.67;75.50
58662;BME280;44432;49.786;22.760;2023-07-09T01:02:22;99669.52;;;14.65;75.51
58662;BME280;44432;49.786;22.760;2023-07-09T01:04:55;99670.33;;;14.66;75.59
58662;BME280;44432;49.786;22.760;2023-07-09T01:07:30;99675.98;;;14.65;75.50
58662;BME280;44432;49.786;22.760;2023-07-09T01:10:01;99673.08;;;14.63;75.65
58662;BME280;44432;49.786;22.760;2023-07-09T01:12:32;99669.66;;;14.61;75.65
58662;BME280;44432;49.786;22.760;2023-07-09T01:15:03;99671.63;;;14.59;75.72
58662;BME280;44432;49.786;22.760;2023-07-09T01:17:33;99672.55;;;14.57;75.81
58662;BME280;44432;49.786;22.760;2023-07-09T01:20:06;99673.39;;;14.56;75.89
58662;BME280;44432;49.786;22.760;2023-07-09T01:22:38;99676.39;;;14.54;75.93
58662;BME280;44432;49.786;22.760;2023-07-09T01:25:10;99677.52;;;14.52;76.04
58662;BME280;44432;49.786;22.760;2023-07-09T01:27:43;99676.52;;;14.51;76.02
58662;BME280;44432;49.786;22.760;2023-07-09T01:30:16;99679.59;;;14.48;76.00
58662;BME280;44432;49.786;22.760;2023-07-09T01:32:55;99677.42;;;14.45;76.23
58662;BME280;44432;49.786;22.760;2023-07-09T01:35:27;99682.64;;;14.43;76.15
58662;BME280;44432;49.786;22.760;2023-07-09T01:37:58;99683.52;;;14.41;76.38
58662;BME280;44432;49.786;22.760;2023-07-09T01:40:30;99681.59;;;14.38;76.41
58662;BME280;44432;49.786;22.760;2023-07-09T01:43:03;99682.52;;;14.35;76.47
58662;BME280;44432;49.786;22.760;2023-07-09T01:45:36;99685.25;;;14.34;76.57
58662;BME280;44432;49.786;22.760;2023-07-09T01:48:08;99689.15;;;14.32;76.59
58662;BME280;44432;49.786;22.760;2023-07-09T01:50:45;99686.08;;;14.31;76.72
58662;BME280;44432;49.786;22.760;2023-07-09T01:53:20;99689.34;;;14.28;76.62
58662;BME280;44432;49.786;22.760;2023-07-09T01:55:52;99694.73;;;14.25;76.81
58662;BME280;44432;49.786;22.760;2023-07-09T01:58:24;99698.20;;;14.21;76.85
58662;BME280;44432;49.786;22.760;2023-07-09T02:00:55;99695.52;;;14.18;76.91
58662;BME280;44432;49.786;22.760;2023-07-09T02:03:25;99701.88;;;14.16;76.97
58662;BME280;44432;49.786;22.760;2023-07-09T02:05:56;99701.29;;;14.12;77.07
58662;BME280;44432;49.786;22.760;2023-07-09T02:08:28;99700.15;;;14.08;77.10
58662;BME280;44432;49.786;22.760;2023-07-09T02:10:59;99699.20;;;14.05;77.32
58662;BME280;44432;49.786;22.760;2023-07-09T02:13:30;99699.52;;;14.03;77.50
58662;BME280;44432;49.786;22.760;2023-07-09T02:16:00;99698.00;;;14.00;77.49
58662;BME280;44432;49.786;22.760;2023-07-09T02:18:31;99703.77;;;13.99;77.53
58662;BME280;44432;49.786;22.760;2023-07-09T02:21:02;99701.36;;;13.97;77.59
58662;BME280;44432;49.786;22.760;2023-07-09T02:23:32;99699.73;;;13.96;77.69
58662;BME280;44432;49.786;22.760;2023-07-09T02:26:03;99696.21;;;13.94;77.83
58662;BME280;44432;49.786;22.760;2023-07-09T02:28:33;99698.63;;;13.94;77.85
58662;BME280;44432;49.786;22.760;2023-07-09T02:31:04;99697.58;;;13.92;78.04
58662;BME280;44432;49.786;22.760;2023-07-09T02:33:35;99694.94;;;13.91;77.93
58662;BME280;44432;49.786;22.760;2023-07-09T02:36:06;99695.55;;;13.90;77.94
58662;BME280;44432;49.786;22.760;2023-07-09T02:38:37;99698.23;;;13.89;78.04
58662;BME280;44432;49.786;22.760;2023-07-09T02:41:07;99698.37;;;13.88;78.10
58662;BME280;44432;49.786;22.760;2023-07-09T02:43:38;99695.56;;;13.87;78.16
58662;BME280;44432;49.786;22.760;2023-07-09T02:46:08;99692.72;;;13.86;78.26
58662;BME280;44432;49.786;22.760;2023-07-09T02:48:39;99692.63;;;13.86;78.23
58662;BME280;44432;49.786;22.760;2023-07-09T02:51:10;99691.20;;;13.86;78.23
58662;BME280;44432;49.786;22.760;2023-07-09T02:53:40;99689.73;;;13.87;78.14
58662;BME280;44432;49.786;22.760;2023-07-09T02:56:11;99690.62;;;13.87;78.31
58662;BME280;44432;49.786;22.760;2023-07-09T02:58:41;99693.27;;;13.88;78.27
58662;BME280;44432;49.786;22.760;2023-07-09T03:01:12;99694.48;;;13.89;78.31
58662;BME280;44432;49.786;22.760;2023-07-09T03:03:43;99696.80;;;13.89;78.18
58662;BME280;44432;49.786;22.760;2023-07-09T03:06:13;99698.84;;;13.90;78.20
58662;BME280;44432;49.786;22.760;2023-07-09T03:08:44;99696.11;;;13.89;78.23
58662;BME280;44432;49.786;22.760;2023-07-09T03:11:15;99696.79;;;13.90;78.31
58662;BME280;44432;49.786;22.760;2023-07-09T03:13:46;99698.58;;;13.92;78.41
58662;BME280;44432;49.786;22.760;2023-07-09T03:16:17;99697.75;;;13.95;78.37
58662;BME280;44432;49.786;22.760;2023-07-09T03:18:49;99696.86;;;13.97;78.52
58662;BME280;44432;49.786;22.760;2023-07-09T03:21:19;99695.45;;;14.02;78.45
58662;BME280;44432;49.786;22.760;2023-07-09T03:23:50;99698.63;;;14.05;78.42
58662;BME280;44432;49.786;22.760;2023-07-09T03:26:21;99695.73;;;14.09;78.43
58662;BME280;44432;49.786;22.760;2023-07-09T03:28:52;99699.77;;;14.15;78.30
58662;BME280;44432;49.786;22.760;2023-07-09T03:31:23;99698.52;;;14.20;78.30
58662;BME280;44432;49.786;22.760;2023-07-09T03:33:54;99697.76;;;14.25;78.22
58662;BME280;44432;49.786;22.760;2023-07-09T03:36:25;99699.88;;;14.28;78.07
58662;BME280;44432;49.786;22.760;2023-07-09T03:38:55;99698.87;;;14.33;78.03
58662;BME280;44432;49.786;22.760;2023-07-09T03:41:26;99697.08;;;14.37;77.95
58662;BME280;44432;49.786;22.760;2023-07-09T03:43:57;99693.98;;;14.42;78.01
58662;BME280;44432;49.786;22.760;2023-07-09T03:46:28;99699.64;;;14.49;77.90
58662;BME280;44432;49.786;22.760;2023-07-09T03:48:59;99699.77;;;14.55;77.78
58662;BME280;44432;49.786;22.760;2023-07-09T03:51:30;99698.39;;;14.62;77.71
58662;BME280;44432;49.786;22.760;2023-07-09T03:54:00;99698.61;;;14.69;77.62
58662;BME280;44432;49.786;22.760;2023-07-09T03:56:31;99700.73;;;14.75;77.60
58662;BME280;44432;49.786;22.760;2023-07-09T03:59:02;99700.45;;;14.82;77.46
58662;BME280;44432;49.786;22.760;2023-07-09T04:01:32;99699.70;;;14.88;77.34
58662;BME280;44432;49.786;22.760;2023-07-09T04:04:03;99698.62;;;14.93;77.22
58662;BME280;44432;49.786;22.760;2023-07-09T04:06:34;99696.94;;;14.99;77.03
58662;BME280;44432;49.786;22.760;2023-07-09T04:09:04;99696.48;;;15.04;77.01
58662;BME280;44432;49.786;22.760;2023-07-09T04:11:35;99698.73;;;15.10;77.09
58662;BME280;44432;49.786;22.760;2023-07-09T04:14:05;99697.83;;;15.18;76.87
58662;BME280;44432;49.786;22.760;2023-07-09T04:16:36;99699.25;;;15.23;76.78
58662;BME280;44432;49.786;22.760;2023-07-09T04:19:07;99704.69;;;15.31;76.81
58662;BME280;44432;49.786;22.760;2023-07-09T04:21:37;99697.97;;;15.38;76.87
58662;BME280;44432;49.786;22.760;2023-07-09T04:24:08;99702.45;;;15.46;76.79
58662;BME280;44432;49.786;22.760;2023-07-09T04:26:39;99700.89;;;15.54;76.73
58662;BME280;44432;49.786;22.760;2023-07-09T04:29:10;99701.36;;;15.61;76.62
58662;BME280;44432;49.786;22.760;2023-07-09T04:31:41;99701.08;;;15.72;76.53
58662;BME280;44432;49.786;22.760;2023-07-09T04:34:12;99699.49;;;15.81;76.38
58662;BME280;44432;49.786;22.760;2023-07-09T04:36:43;99703.24;;;15.90;76.19
58662;BME280;44432;49.786;22.760;2023-07-09T04:39:13;99701.66;;;15.98;76.09
58662;BME280;44432;49.786;22.760;2023-07-09T04:41:44;99699.10;;;16.10;75.98
58662;BME280;44432;49.786;22.760;2023-07-09T04:44:15;99697.65;;;16.20;75.87
58662;BME280;44432;49.786;22.760;2023-07-09T04:46:45;99699.02;;;16.30;75.74
58662;BME280;44432;49.786;22.760;2023-07-09T04:49:16;99699.25;;;16.41;75.57
58662;BME280;44432;49.786;22.760;2023-07-09T04:51:46;99700.67;;;16.53;75.35
58662;BME280;44432;49.786;22.760;2023-07-09T04:54:17;99699.10;;;16.63;75.21
58662;BME280;44432;49.786;22.760;2023-07-09T04:56:47;99695.97;;;16.75;74.85
58662;BME280;44432;49.786;22.760;2023-07-09T04:59:18;99696.48;;;16.86;74.67
58662;BME280;44432;49.786;22.760;2023-07-09T05:01:50;99694.30;;;16.97;74.47
58662;BME280;44432;49.786;22.760;2023-07-09T05:04:20;99692.82;;;17.09;74.33
58662;BME280;44432;49.786;22.760;2023-07-09T05:06:51;99691.75;;;17.20;74.06
58662;BME280;44432;49.786;22.760;2023-07-09T05:09:22;99689.17;;;17.30;73.87
58662;BME280;44432;49.786;22.760;2023-07-09T05:11:52;99689.80;;;17.41;73.72
58662;BME280;44432;49.786;22.760;2023-07-09T05:14:23;99691.31;;;17.50;73.31
58662;BME280;44432;49.786;22.760;2023-07-09T05:16:54;99689.62;;;17.59;73.18
58662;BME280;44432;49.786;22.760;2023-07-09T05:19:25;99687.39;;;17.69;72.86
58662;BME280;44432;49.786;22.760;2023-07-09T05:21:56;99687.73;;;17.81;72.62
58662;BME280;44432;49.786;22.760;2023-07-09T05:24:26;99686.40;;;17.94;71.92
58662;BME280;44432;49.786;22.760;2023-07-09T05:26:57;99687.91;;;18.10;70.71
58662;BME280;44432;49.786;22.760;2023-07-09T05:29:28;99689.20;;;18.27;69.89
58662;BME280;44432;49.786;22.760;2023-07-09T05:31:58;99689.10;;;18.45;68.97
58662;BME280;44432;49.786;22.760;2023-07-09T05:34:29;99692.70;;;18.63;67.91
58662;BME280;44432;49.786;22.760;2023-07-09T05:36:59;99688.00;;;18.80;66.82
58662;BME280;44432;49.786;22.760;2023-07-09T05:39:30;99681.42;;;18.95;66.07
58662;BME280;44432;49.786;22.760;2023-07-09T05:42:01;99681.20;;;19.11;65.43
58662;BME280;44432;49.786;22.760;2023-07-09T05:44:31;99680.92;;;19.24;64.77
58662;BME280;44432;49.786;22.760;2023-07-09T05:47:02;99678.64;;;19.38;64.38
58662;BME280;44432;49.786;22.760;2023-07-09T05:49:33;99676.14;;;19.50;64.16
58662;BME280;44432;49.786;22.760;2023-07-09T05:52:04;99677.94;;;19.64;63.93
58662;BME280;44432;49.786;22.760;2023-07-09T05:54:35;99672.48;;;19.78;63.39
58662;BME280;44432;49.786;22.760;2023-07-09T05:57:07;99670.77;;;19.91;62.93
58662;BME280;44432;49.786;22.760;2023-07-09T05:59:38;99676.74;;;20.06;62.18
58662;BME280;44432;49.786;22.760;2023-07-09T06:02:11;99674.79;;;20.18;61.75
58662;BME280;44432;49.786;22.760;2023-07-09T06:04:42;99677.01;;;20.31;61.56
58662;BME280;44432;49.786;22.760;2023-07-09T06:07:13;99675.77;;;20.42;60.42
58662;BME280;44432;49.786;22.760;2023-07-09T06:09:44;99678.61;;;20.50;59.60
58662;BME280;44432;49.786;22.760;2023-07-09T06:12:15;99676.58;;;20.59;59.48
58662;BME280;44432;49.786;22.760;2023-07-09T06:14:48;99677.12;;;20.68;59.01
58662;BME280;44432;49.786;22.760;2023-07-09T06:17:18;99673.35;;;20.76;58.72
58662;BME280;44432;49.786;22.760;2023-07-09T06:19:49;99669.78;;;20.85;58.53
58662;BME280;44432;49.786;22.760;2023-07-09T06:22:20;99669.82;;;20.95;57.88
58662;BME280;44432;49.786;22.760;2023-07-09T06:24:50;99667.17;;;21.05;58.02
58662;BME280;44432;49.786;22.760;2023-07-09T06:27:21;99665.97;;;21.17;57.90
58662;BME280;44432;49.786;22.760;2023-07-09T06:29:52;99671.44;;;21.30;57.50
58662;BME280;44432;49.786;22.760;2023-07-09T06:32:23;99672.42;;;21.44;57.28
58662;BME280;44432;49.786;22.760;2023-07-09T06:34:53;99672.59;;;21.56;56.90
58662;BME280;44432;49.786;22.760;2023-07-09T06:37:24;99675.34;;;21.67;56.16
58662;BME280;44432;49.786;22.760;2023-07-09T06:39:54;99672.23;;;21.78;55.46
58662;BME280;44432;49.786;22.760;2023-07-09T06:42:25;99667.80;;;21.87;54.84
58662;BME280;44432;49.786;22.760;2023-07-09T06:44:56;99668.38;;;21.98;54.40
58662;BME280;44432;49.786;22.760;2023-07-09T06:47:26;99663.20;;;22.06;54.29
58662;BME280;44432;49.786;22.760;2023-07-09T06:49:57;99667.44;;;22.16;54.05
58662;BME280;44432;49.786;22.760;2023-07-09T06:52:27;99664.23;;;22.28;53.30
58662;BME280;44432;49.786;22.760;2023-07-09T06:54:58;99668.52;;;22.40;53.01
58662;BME280;44432;49.786;22.760;2023-07-09T06:57:29;99668.05;;;22.51;52.64
58662;BME280;44432;49.786;22.760;2023-07-09T07:00:00;99664.47;;;22.62;52.01
58662;BME280;44432;49.786;22.760;2023-07-09T07:02:31;99663.63;;;22.72;51.38
58662;BME280;44432;49.786;22.760;2023-07-09T07:05:01;99661.80;;;22.80;51.16
58662;BME280;44432;49.786;22.760;2023-07-09T07:07:32;99660.05;;;22.92;50.35
58662;BME280;44432;49.786;22.760;2023-07-09T07:10:03;99660.69;;;22.99;50.12
58662;BME280;44432;49.786;22.760;2023-07-09T07:12:43;99658.48;;;23.07;49.95
58662;BME280;44432;49.786;22.760;2023-07-09T07:15:16;99656.92;;;23.18;49.74
58662;BME280;44432;49.786;22.760;2023-07-09T07:17:47;99660.20;;;23.29;49.69
58662;BME280;44432;49.786;22.760;2023-07-09T07:20:18;99656.85;;;23.39;49.02
58662;BME280;44432;49.786;22.760;2023-07-09T07:22:49;99658.43;;;23.47;48.23
58662;BME280;44432;49.786;22.760;2023-07-09T07:25:20;99658.47;;;23.55;47.83
58662;BME280;44432;49.786;22.760;2023-07-09T07:27:51;99660.92;;;23.62;47.63
58662;BME280;44432;49.786;22.760;2023-07-09T07:30:22;99657.25;;;23.71;47.44
58662;BME280;44432;49.786;22.760;2023-07-09T07:32:53;99660.83;;;23.77;47.03
58662;BME280;44432;49.786;22.760;2023-07-09T07:35:24;99652.91;;;23.85;46.50
58662;BME280;44432;49.786;22.760;2023-07-09T07:37:55;99657.29;;;23.94;46.18
58662;BME280;44432;49.786;22.760;2023-07-09T07:40:26;99654.56;;;24.00;45.97
58662;BME280;44432;49.786;22.760;2023-07-09T07:42:56;99652.02;;;24.03;45.96
58662;BME280;44432;49.786;22.760;2023-07-09T07:45:27;99650.05;;;24.13;46.31
58662;BME280;44432;49.786;22.760;2023-07-09T07:47:58;99643.67;;;24.26;45.83
58662;BME280;44432;49.786;22.760;2023-07-09T07:50:28;99643.55;;;24.31;45.17
58662;BME280;44432;49.786;22.760;2023-07-09T07:52:59;99645.52;;;24.36;45.41
58662;BME280;44432;49.786;22.760;2023-07-09T07:55:30;99645.58;;;24.43;44.76
58662;BME280;44432;49.786;22.760;2023-07-09T07:58:00;99644.48;;;24.47;45.18
58662;BME280;44432;49.786;22.760;2023-07-09T08:00:32;99647.20;;;24.56;45.58
58662;BME280;44432;49.786;22.760;2023-07-09T08:03:36;99646.97;;;24.69;45.03
58662;BME280;44432;49.786;22.760;2023-07-09T08:06:06;99644.44;;;24.72;45.14
58662;BME280;44432;49.786;22.760;2023-07-09T08:08:37;99642.59;;;24.79;45.13
58662;BME280;44432;49.786;22.760;2023-07-09T08:11:09;99641.90;;;24.87;44.90
58662;BME280;44432;49.786;22.760;2023-07-09T08:13:40;99641.20;;;24.96;45.26
58662;BME280;44432;49.786;22.760;2023-07-09T08:16:10;99637.33;;;25.03;45.28
58662;BME280;44432;49.786;22.760;2023-07-09T08:18:42;99635.21;;;25.13;45.08
58662;BME280;44432;49.786;22.760;2023-07-09T08:21:12;99635.16;;;25.21;44.96
58662;BME280;44432;49.786;22.760;2023-07-09T08:23:43;99638.10;;;25.25;45.01
58662;BME280;44432;49.786;22.760;2023-07-09T08:26:13;99642.46;;;25.31;44.80
58662;BME280;44432;49.786;22.760;2023-07-09T08:28:44;99637.14;;;25.35;44.46
58662;BME280;44432;49.786;22.760;2023-07-09T08:31:15;99637.32;;;25.40;44.98
58662;BME280;44432;49.786;22.760;2023-07-09T08:33:45;99638.04;;;25.52;45.25
58662;BME280;44432;49.786;22.760;2023-07-09T08:36:16;99630.95;;;25.63;45.13
58662;BME280;44432;49.786;22.760;2023-07-09T08:38:47;99629.58;;;25.73;44.87
58662;BME280;44432;49.786;22.760;2023-07-09T08:41:29;99630.39;;;25.80;44.58
58662;BME280;44432;49.786;22.760;2023-07-09T08:44:20;99633.40;;;25.86;44.84
58662;BME280;44432;49.786;22.760;2023-07-09T08:47:02;99627.67;;;25.97;44.96
58662;BME280;44432;49.786;22.760;2023-07-09T08:49:40;99623.96;;;26.09;44.72
58662;BME280;44432;49.786;22.760;2023-07-09T08:52:18;99626.79;;;26.20;44.57
58662;BME280;44432;49.786;22.760;2023-07-09T08:54:52;99630.77;;;26.31;44.69
58662;BME280;44432;49.786;22.760;2023-07-09T08:57:27;99630.80;;;26.42;43.96
58662;BME280;44432;49.786;22.760;2023-07-09T09:00:02;99628.92;;;26.49;43.63
58662;BME280;44432;49.786;22.760;2023-07-09T09:02:39;99630.42;;;26.57;43.32
58662;BME280;44432;49.786;22.760;2023-07-09T09:05:17;99629.83;;;26.59;42.93
58662;BME280;44432;49.786;22.760;2023-07-09T09:07:53;99627.95;;;26.60;42.59
58662;BME280;44432;49.786;22.760;2023-07-09T09:10:33;99630.30;;;26.64;42.61
58662;BME280;44432;49.786;22.760;2023-07-09T09:13:15;99628.54;;;26.69;42.14
58662;BME280;44432;49.786;22.760;2023-07-09T09:15:47;99629.66;;;26.76;42.01
58662;BME280;44432;49.786;22.760;2023-07-09T09:18:24;99634.80;;;26.83;40.88
58662;BME280;44432;49.786;22.760;2023-07-09T09:21:01;99633.11;;;26.90;41.44
58662;BME280;44432;49.786;22.760;2023-07-09T09:23:39;99635.39;;;27.01;41.12
58662;BME280;44432;49.786;22.760;2023-07-09T09:26:17;99637.63;;;27.08;40.59
58662;BME280;44432;49.786;22.760;2023-07-09T09:28:49;99634.61;;;27.13;39.30
58662;BME280;44432;49.786;22.760;2023-07-09T09:31:20;99633.71;;;27.20;37.78
58662;BME280;44432;49.786;22.760;2023-07-09T09:33:50;99632.02;;;27.28;37.29
58662;BME280;44432;49.786;22.760;2023-07-09T09:36:23;99631.02;;;27.31;37.14
58662;BME280;44432;49.786;22.760;2023-07-09T09:38:55;99633.33;;;27.38;37.21
58662;BME280;44432;49.786;22.760;2023-07-09T09:41:30;99627.55;;;27.37;35.46
58662;BME280;44432;49.786;22.760;2023-07-09T09:44:01;99623.87;;;27.34;36.09
58662;BME280;44432;49.786;22.760;2023-07-09T09:46:32;99624.34;;;27.40;36.08
58662;BME280;44432;49.786;22.760;2023-07-09T09:49:08;99620.80;;;27.43;36.30
58662;BME280;44432;49.786;22.760;2023-07-09T09:51:43;99619.77;;;27.43;35.60
58662;BME280;44432;49.786;22.760;2023-07-09T09:54:20;99622.61;;;27.41;35.42
58662;BME280;44432;49.786;22.760;2023-07-09T09:56:54;99616.64;;;27.35;35.98
58662;BME280;44432;49.786;22.760;2023-07-09T09:59:33;99618.08;;;27.38;36.52
58662;BME280;44432;49.786;22.760;2023-07-09T10:02:16;99619.43;;;27.48;36.01
58662;BME280;44432;49.786;22.760;2023-07-09T10:04:48;99619.77;;;27.54;35.44
58662;BME280;44432;49.786;22.760;2023-07-09T10:07:23;99616.42;;;27.60;35.15
58662;BME280;44432;49.786;22.760;2023-07-09T10:09:57;99617.66;;;27.66;35.27
58662;BME280;44432;49.786;22.760;2023-07-09T10:12:38;99610.92;;;27.74;35.48
58662;BME280;44432;49.786;22.760;2023-07-09T10:15:21;99610.32;;;27.81;35.52
58662;BME280;44432;49.786;22.760;2023-07-09T10:17:59;99613.07;;;27.85;34.63
58662;BME280;44432;49.786;22.760;2023-07-09T10:20:37;99611.67;;;27.86;34.69
58662;BME280;44432;49.786;22.760;2023-07-09T10:23:21;99621.64;;;27.87;33.55
58662;BME280;44432;49.786;22.760;2023-07-09T10:25:57;99623.19;;;27.81;31.70
58662;BME280;44432;49.786;22.760;2023-07-09T10:28:49;99630.84;;;27.74;31.85
58662;BME280;44432;49.786;22.760;2023-07-09T10:31:33;99626.57;;;27.72;32.62
58662;BME280;44432;49.786;22.760;2023-07-09T10:34:20;99622.58;;;27.74;32.68
58662;BME280;44432;49.786;22.760;2023-07-09T10:37:17;99618.98;;;27.77;32.99
58662;BME280;44432;49.786;22.760;2023-07-09T10:39:53;99619.79;;;27.89;33.32
58662;BME280;44432;49.786;22.760;2023-07-09T10:42:29;99614.48;;;27.95;32.55
58662;BME280;44432;49.786;22.760;2023-07-09T10:45:03;99618.09;;;27.96;33.03
58662;BME280;44432;49.786;22.760;2023-07-09T10:47:38;99618.11;;;28.06;33.24
58662;BME280;44432;49.786;22.760;2023-07-09T10:53:02;99617.75;;;28.27;32.96
58662;BME280;44432;49.786;22.760;2023-07-09T10:55:42;99616.60;;;28.28;32.36
58662;BME280;44432;49.786;22.760;2023-07-09T10:58:24;99618.17;;;28.25;32.70
58662;BME280;44432;49.786;22.760;2023-07-09T11:00:59;99618.52;;;28.29;33.18
58662;BME280;44432;49.786;22.760;2023-07-09T11:03:38;99613.79;;;28.36;32.96
58662;BME280;44432;49.786;22.760;2023-07-09T11:06:19;99613.06;;;28.45;33.31
58662;BME280;44432;49.786;22.760;2023-07-09T11:08:54;99623.77;;;28.48;32.05
58662;BME280;44432;49.786;22.760;2023-07-09T11:11:34;99616.80;;;28.47;32.19
58662;BME280;44432;49.786;22.760;2023-07-09T11:14:21;99614.25;;;28.56;32.82
58662;BME280;44432;49.786;22.760;2023-07-09T11:16:56;99613.38;;;28.72;32.14
58662;BME280;44432;49.786;22.760;2023-07-09T11:19:28;99610.55;;;28.84;32.48
58662;BME280;44432;49.786;22.760;2023-07-09T11:22:05;99610.05;;;29.00;32.36
58662;BME280;44432;49.786;22.760;2023-07-09T11:24:47;99615.04;;;29.16;31.92
58662;BME280;44432;49.786;22.760;2023-07-09T11:27:25;99605.52;;;29.29;31.59
58662;BME280;44432;49.786;22.760;2023-07-09T11:30:02;99602.16;;;29.50;31.83
58662;BME280;44432;49.786;22.760;2023-07-09T11:32:44;99604.12;;;29.73;31.28
58662;BME280;44432;49.786;22.760;2023-07-09T11:35:22;99609.63;;;29.76;30.18
58662;BME280;44432;49.786;22.760;2023-07-09T11:38:12;99598.03;;;29.59;30.25
58662;BME280;44432;49.786;22.760;2023-07-09T11:40:49;99600.69;;;29.46;30.24
58662;BME280;44432;49.786;22.760;2023-07-09T11:43:32;99600.11;;;29.36;30.40
58662;BME280;44432;49.786;22.760;2023-07-09T11:46:10;99599.58;;;29.41;31.04
58662;BME280;44432;49.786;22.760;2023-07-09T11:48:42;99603.09;;;29.51;31.02
58662;BME280;44432;49.786;22.760;2023-07-09T11:51:19;99603.34;;;29.64;30.78
58662;BME280;44432;49.786;22.760;2023-07-09T11:53:53;99599.99;;;29.77;30.32
58662;BME280;44432;49.786;22.760;2023-07-09T11:56:26;99598.61;;;29.81;30.23
58662;BME280;44432;49.786;22.760;2023-07-09T11:58:58;99592.63;;;29.81;30.17
58662;BME280;44432;49.786;22.760;2023-07-09T12:01:33;99584.88;;;29.80;30.42
58662;BME280;44432;49.786;22.760;2023-07-09T12:04:05;99584.74;;;29.76;30.51
58662;BME280;44432;49.786;22.760;2023-07-09T12:06:38;99578.02;;;29.73;30.26
58662;BME280;44432;49.786;22.760;2023-07-09T12:09:15;99573.70;;;29.76;30.64
58662;BME280;44432;49.786;22.760;2023-07-09T12:11:49;99571.42;;;29.84;29.89
58662;BME280;44432;49.786;22.760;2023-07-09T12:14:22;99565.38;;;29.93;29.98
58662;BME280;44432;49.786;22.760;2023-07-09T12:16:53;99560.89;;;30.02;30.07
58662;BME280;44432;49.786;22.760;2023-07-09T12:19:28;99561.92;;;30.09;29.54
58662;BME280;44432;49.786;22.760;2023-07-09T12:21:59;99562.58;;;30.10;29.20
58662;BME280;44432;49.786;22.760;2023-07-09T12:24:37;99563.02;;;30.07;28.09
58662;BME280;44432;49.786;22.760;2023-07-09T12:27:23;99555.52;;;30.00;28.46
58662;BME280;44432;49.786;22.760;2023-07-09T12:29:55;99558.92;;;30.03;28.33
58662;BME280;44432;49.786;22.760;2023-07-09T12:32:25;99558.31;;;29.93;26.81
58662;BME280;44432;49.786;22.760;2023-07-09T12:34:57;99548.48;;;29.82;27.42
58662;BME280;44432;49.786;22.760;2023-07-09T12:37:32;99543.42;;;29.90;27.97
58662;BME280;44432;49.786;22.760;2023-07-09T12:40:04;99538.81;;;30.09;28.16
58662;BME280;44432;49.786;22.760;2023-07-09T12:42:36;99540.84;;;30.23;27.92
58662;BME280;44432;49.786;22.760;2023-07-09T12:45:15;99546.37;;;30.35;27.81
58662;BME280;44432;49.786;22.760;2023-07-09T12:47:49;99543.30;;;30.31;28.29
58662;BME280;44432;49.786;22.760;2023-07-09T12:50:31;99543.92;;;30.24;28.14
58662;BME280;44432;49.786;22.760;2023-07-09T12:53:13;99546.34;;;30.12;28.48
58662;BME280;44432;49.786;22.760;2023-07-09T12:55:46;99544.10;;;30.02;28.54
58662;BME280;44432;49.786;22.760;2023-07-09T12:58:22;99542.23;;;29.98;28.85
58662;BME280;44432;49.786;22.760;2023-07-09T13:00:54;99532.07;;;29.99;28.63
58662;BME280;44432;49.786;22.760;2023-07-09T13:03:29;99532.35;;;30.02;28.49
58662;BME280;44432;49.786;22.760;2023-07-09T13:06:02;99534.19;;;30.01;28.54
58662;BME280;44432;49.786;22.760;2023-07-09T13:08:40;99529.97;;;30.07;28.64
58662;BME280;44432;49.786;22.760;2023-07-09T13:11:17;99528.00;;;30.23;28.52
58662;BME280;44432;49.786;22.760;2023-07-09T13:13:57;99522.20;;;30.38;28.71
58662;BME280;44432;49.786;22.760;2023-07-09T13:16:28;99529.74;;;30.54;28.72
58662;BME280;44432;49.786;22.760;2023-07-09T13:18:59;99528.52;;;30.52;28.59
58662;BME280;44432;49.786;22.760;2023-07-09T13:21:30;99529.62;;;30.48;28.73
58662;BME280;44432;49.786;22.760;2023-07-09T13:24:00;99528.08;;;30.48;28.85
58662;BME280;44432;49.786;22.760;2023-07-09T13:26:31;99531.67;;;30.47;28.93